createdAt,value
2019-03-20T00:00:13.746Z,99.90
2019-03-20T00:03:22.792Z,99.90
2019-03-20T00:06:30.354Z,99.90
2019-03-20T00:09:37.914Z,99.90
2019-03-20T00:12:45.427Z,99.90
2019-03-20T00:15:52.947Z,99.90
2019-03-20T00:19:00.484Z,99.90
2019-03-20T00:22:08.136Z,99.90
2019-03-20T00:25:15.938Z,99.90
2019-03-20T00:28:25.397Z,99.90
2019-03-20T00:31:32.940Z,99.90
2019-03-20T00:34:40.566Z,99.90
2019-03-20T00:37:48.550Z,99.90
2019-03-20T00:40:56.117Z,99.90
2019-03-20T00:44:03.668Z,99.90
2019-03-20T00:47:11.089Z,99.90
2019-03-20T00:50:19.626Z,99.90
2019-03-20T00:53:27.093Z,99.90
2019-03-20T00:56:34.646Z,99.90
2019-03-20T00:59:42.066Z,99.90
2019-03-20T01:02:49.543Z,99.90
2019-03-20T01:05:56.991Z,99.90
2019-03-20T01:09:05.184Z,99.90
2019-03-20T01:12:12.713Z,99.90
2019-03-20T01:15:20.382Z,99.90
2019-03-20T01:18:27.855Z,99.90
2019-03-20T01:21:35.364Z,99.90
2019-03-20T01:24:42.829Z,99.90
2019-03-20T01:27:50.356Z,99.90
2019-03-20T01:30:57.882Z,99.90
2019-03-20T01:34:05.362Z,99.90
2019-03-20T01:37:12.954Z,99.90
2019-03-20T01:40:20.447Z,99.90
2019-03-20T01:43:27.900Z,99.90
2019-03-20T01:46:35.954Z,99.90
2019-03-20T01:49:43.464Z,99.90
2019-03-20T01:52:51.022Z,99.90
2019-03-20T01:56:01.596Z,99.90
2019-03-20T01:59:09.124Z,99.90
2019-03-20T02:02:16.578Z,99.90
2019-03-20T02:05:34.712Z,99.90
2019-03-20T02:08:33.108Z,99.90
2019-03-20T02:11:40.622Z,99.90
2019-03-20T02:14:48.088Z,99.90
2019-03-20T02:17:55.551Z,99.90
2019-03-20T02:21:03.828Z,99.90
2019-03-20T02:24:11.334Z,99.90
2019-03-20T02:27:18.875Z,99.90
2019-03-20T02:30:26.441Z,99.90
2019-03-20T02:33:33.896Z,99.90
2019-03-20T02:36:41.416Z,99.90
2019-03-20T02:39:48.837Z,99.90
2019-03-20T02:42:56.812Z,99.90
2019-03-20T02:46:04.382Z,99.90
2019-03-20T02:49:11.815Z,99.90
2019-03-20T02:52:19.270Z,99.90
2019-03-20T02:55:26.693Z,99.90
2019-03-20T02:58:34.211Z,99.90
2019-03-20T03:01:41.793Z,99.90
2019-03-20T03:04:49.249Z,99.90
2019-03-20T03:07:56.904Z,99.90
2019-03-20T03:11:05.236Z,99.90
2019-03-20T03:14:13.246Z,99.90
2019-03-20T03:17:20.710Z,99.90
2019-03-20T03:20:29.014Z,99.90
2019-03-20T03:23:36.440Z,99.90
2019-03-20T03:26:44.069Z,99.90
2019-03-20T03:29:51.509Z,99.90
2019-03-20T03:32:58.997Z,99.90
2019-03-20T03:36:20.253Z,99.90
2019-03-20T03:39:15.758Z,99.90
2019-03-20T03:42:23.193Z,99.90
2019-03-20T03:45:30.720Z,99.90
2019-03-20T03:48:38.182Z,99.90
2019-03-20T03:51:45.722Z,99.90
2019-03-20T03:54:53.245Z,99.90
2019-03-20T03:58:00.706Z,99.90
2019-03-20T04:01:08.142Z,99.90
2019-03-20T04:04:15.641Z,99.90
2019-03-20T04:07:23.819Z,99.90
2019-03-20T04:10:31.643Z,99.90
2019-03-20T04:13:39.136Z,99.90
2019-03-20T04:16:47.040Z,99.90
2019-03-20T04:19:54.586Z,99.90
2019-03-20T04:23:02.054Z,99.90
2019-03-20T04:26:09.606Z,99.90
2019-03-20T04:29:17.142Z,99.90
2019-03-20T04:32:24.655Z,99.90
2019-03-20T04:35:32.184Z,99.90
2019-03-20T04:38:39.736Z,99.90
2019-03-20T04:41:47.184Z,99.90
2019-03-20T04:44:54.747Z,99.90
2019-03-20T04:48:02.255Z,99.90
2019-03-20T04:51:09.745Z,99.90
2019-03-20T04:54:17.307Z,99.90
2019-03-20T04:57:24.811Z,99.90
2019-03-20T05:00:32.316Z,99.90
2019-03-20T05:03:39.811Z,99.90
2019-03-20T05:06:57.992Z,99.90
2019-03-20T05:09:56.645Z,99.90
2019-03-20T05:13:04.194Z,99.90
2019-03-20T05:16:11.697Z,99.90
2019-03-20T05:19:19.660Z,99.90
2019-03-20T05:22:27.216Z,99.90
2019-03-20T05:25:34.758Z,99.90
2019-03-20T05:28:42.205Z,99.90
2019-03-20T05:31:49.657Z,99.90
2019-03-20T05:34:57.114Z,99.90
2019-03-20T05:38:04.835Z,99.90
2019-03-20T05:41:12.453Z,99.90
2019-03-20T05:44:19.972Z,99.90
2019-03-20T05:47:27.438Z,99.90
2019-03-20T05:50:36.135Z,99.90
2019-03-20T05:53:43.919Z,99.90
2019-03-20T05:56:52.985Z,99.90
2019-03-20T06:00:00.571Z,99.90
2019-03-20T06:03:08.051Z,99.90
2019-03-20T06:06:15.836Z,99.90
2019-03-20T06:09:23.410Z,99.90
2019-03-20T06:12:30.955Z,99.90
2019-03-20T06:15:38.529Z,99.90
2019-03-20T06:18:46.093Z,99.90
2019-03-20T06:21:54.538Z,99.90
2019-03-20T06:25:02.194Z,99.90
2019-03-20T06:28:09.838Z,99.90
2019-03-20T06:31:18.869Z,99.90
2019-03-20T06:34:26.521Z,99.90
2019-03-20T06:37:34.015Z,98.50
2019-03-20T06:40:42.445Z,97.20
2019-03-20T06:43:49.870Z,96.70
2019-03-20T06:46:57.327Z,96.30
2019-03-20T06:50:05.136Z,95.40
2019-03-20T06:53:12.760Z,95.80
2019-03-20T06:56:20.304Z,95.00
2019-03-20T07:00:11.931Z,94.80
2019-03-20T07:03:23.699Z,95.30
2019-03-20T07:06:47.677Z,95.70
2019-03-20T07:10:11.627Z,95.70
2019-03-20T07:13:19.183Z,95.80
2019-03-20T07:16:26.665Z,95.30
2019-03-20T07:19:34.143Z,94.20
2019-03-20T07:22:41.781Z,93.60
2019-03-20T07:25:49.219Z,93.50
2019-03-20T07:28:56.625Z,93.90
2019-03-20T07:32:04.305Z,93.00
2019-03-20T07:35:11.848Z,93.20
2019-03-20T07:38:19.342Z,94.40
2019-03-20T07:41:26.833Z,94.00
2019-03-20T07:44:34.285Z,93.10
2019-03-20T07:47:41.726Z,91.10
2019-03-20T07:50:49.288Z,88.80
2019-03-20T07:53:56.772Z,85.40
2019-03-20T07:57:04.379Z,79.40
2019-03-20T08:00:13.711Z,74.00
2019-03-20T08:03:21.287Z,71.90
2019-03-20T08:06:28.719Z,68.20
2019-03-20T08:09:36.348Z,66.60
2019-03-20T08:12:43.941Z,66.90
2019-03-20T08:15:51.410Z,66.40
2019-03-20T08:18:58.959Z,67.10
2019-03-20T08:22:06.425Z,67.70
2019-03-20T08:25:14.345Z,65.60
2019-03-20T08:28:22.052Z,64.30
2019-03-20T08:31:29.639Z,65.70
2019-03-20T08:34:37.139Z,65.10
2019-03-20T08:37:44.731Z,65.10
2019-03-20T08:40:52.197Z,63.30
2019-03-20T08:43:59.647Z,62.80
2019-03-20T08:47:07.136Z,60.90
2019-03-20T08:50:18.051Z,60.20
2019-03-20T08:53:25.597Z,61.40
2019-03-20T08:56:33.193Z,60.50
2019-03-20T08:59:40.769Z,59.10
2019-03-20T09:02:48.286Z,57.80
2019-03-20T09:05:55.800Z,57.20
2019-03-20T09:09:03.369Z,56.10
2019-03-20T09:12:11.107Z,54.90
2019-03-20T09:15:18.857Z,55.20
2019-03-20T09:18:26.746Z,54.10
2019-03-20T09:21:35.293Z,53.60
2019-03-20T09:24:42.802Z,56.20
2019-03-20T09:27:50.409Z,54.20
2019-03-20T09:30:57.964Z,54.50
2019-03-20T09:34:05.606Z,55.90
2019-03-20T09:37:13.267Z,53.60
2019-03-20T09:40:23.486Z,53.90
2019-03-20T09:43:30.429Z,54.70
2019-03-20T09:46:38.020Z,55.60
2019-03-20T09:49:45.613Z,54.80
2019-03-20T09:52:53.159Z,54.30
2019-03-20T09:56:00.635Z,53.80
2019-03-20T09:59:08.143Z,56.80
2019-03-20T10:02:16.117Z,57.30
2019-03-20T10:05:23.881Z,59.20
2019-03-20T10:08:31.453Z,65.10
2019-03-20T10:11:39.121Z,66.60
2019-03-20T10:14:46.686Z,63.00
2019-03-20T10:17:54.143Z,62.80
2019-03-20T10:21:01.601Z,62.10
2019-03-20T10:24:09.685Z,60.40
2019-03-20T10:27:17.139Z,59.10
2019-03-20T10:30:24.839Z,58.40
2019-03-20T10:33:32.369Z,55.80
2019-03-20T10:36:39.856Z,56.40
2019-03-20T10:39:47.381Z,56.70
2019-03-20T10:42:55.196Z,56.70
2019-03-20T10:46:02.926Z,56.40
2019-03-20T10:49:10.562Z,54.00
2019-03-20T10:52:18.184Z,55.10
2019-03-20T10:55:25.771Z,51.00
2019-03-20T10:58:33.603Z,52.80
2019-03-20T11:01:42.818Z,54.40
2019-03-20T11:04:50.473Z,53.30
2019-03-20T11:07:58.052Z,53.20
2019-03-20T11:11:05.766Z,55.60
2019-03-20T11:14:13.253Z,56.50
2019-03-20T11:17:20.809Z,59.10
2019-03-20T11:20:28.404Z,61.60
2019-03-20T11:23:35.895Z,64.40
2019-03-20T11:26:43.357Z,63.90
2019-03-20T11:29:50.870Z,63.80
2019-03-20T11:32:58.496Z,63.10
2019-03-20T11:36:06.050Z,65.40
2019-03-20T11:39:13.625Z,68.00
2019-03-20T11:42:21.262Z,70.10
2019-03-20T11:45:28.937Z,75.70
2019-03-20T11:48:36.554Z,81.70
2019-03-20T11:51:44.052Z,83.50
2019-03-20T11:54:51.569Z,88.90
2019-03-20T11:57:59.448Z,89.70
2019-03-20T12:01:07.088Z,89.90
2019-03-20T12:04:14.919Z,90.00
2019-03-20T12:07:22.574Z,89.80
2019-03-20T12:10:30.179Z,88.00
2019-03-20T12:13:37.684Z,84.90
2019-03-20T12:16:45.388Z,86.30
2019-03-20T12:19:52.980Z,86.60
2019-03-20T12:23:00.522Z,86.70
2019-03-20T12:26:08.098Z,85.70
2019-03-20T12:29:15.887Z,86.50
2019-03-20T12:32:23.631Z,82.90
2019-03-20T12:35:31.975Z,78.60
2019-03-20T12:38:39.505Z,76.30
2019-03-20T12:41:46.986Z,75.70
2019-03-20T12:44:54.544Z,77.60
2019-03-20T12:48:02.153Z,75.30
2019-03-20T12:51:09.723Z,75.70
2019-03-20T12:54:17.257Z,79.20
2019-03-20T12:57:24.804Z,78.00
2019-03-20T13:00:33.924Z,81.50
2019-03-20T13:03:41.490Z,85.10
2019-03-20T13:06:48.970Z,88.10
2019-03-20T13:10:03.158Z,89.70
2019-03-20T13:13:05.824Z,90.50
2019-03-20T13:16:13.627Z,90.90
2019-03-20T13:19:22.269Z,91.00
2019-03-20T13:22:30.138Z,86.70
2019-03-20T13:25:37.912Z,85.90
2019-03-20T13:28:45.653Z,83.20
2019-03-20T13:31:53.068Z,80.50
2019-03-20T13:35:00.685Z,80.90
2019-03-20T13:38:08.376Z,79.30
2019-03-20T13:41:16.140Z,78.40
2019-03-20T13:44:23.606Z,81.30
2019-03-20T13:47:31.316Z,81.40
2019-03-20T13:50:40.463Z,82.60
2019-03-20T13:53:47.967Z,85.40
2019-03-20T13:56:55.600Z,90.00
2019-03-20T14:00:03.098Z,90.90
2019-03-20T14:03:12.135Z,90.60
2019-03-20T14:06:19.684Z,89.00
2019-03-20T14:09:27.654Z,90.00
2019-03-20T14:12:35.424Z,88.30
2019-03-20T14:15:44.972Z,86.70
2019-03-20T14:18:52.449Z,83.50
2019-03-20T14:21:59.941Z,82.40
2019-03-20T14:25:07.937Z,79.70
2019-03-20T14:28:15.535Z,81.50
2019-03-20T14:31:23.167Z,82.30
2019-03-20T14:34:30.627Z,82.40
2019-03-20T14:37:38.131Z,81.90
2019-03-20T14:40:45.966Z,84.90
2019-03-20T14:43:53.480Z,84.10
2019-03-20T14:47:01.062Z,78.70
2019-03-20T14:50:10.417Z,80.90
2019-03-20T14:53:17.992Z,79.30
2019-03-20T14:56:25.464Z,77.80
2019-03-20T14:59:33.058Z,81.20
2019-03-20T15:02:40.687Z,80.20
2019-03-20T15:05:48.172Z,84.40
2019-03-20T15:08:56.788Z,82.30
2019-03-20T15:12:04.387Z,81.10
2019-03-20T15:15:16.399Z,82.20
2019-03-20T15:18:24.011Z,85.10
2019-03-20T15:21:31.623Z,87.50
2019-03-20T15:24:39.350Z,84.60
2019-03-20T15:27:47.047Z,87.70
2019-03-20T15:30:54.568Z,86.90
2019-03-20T15:34:03.188Z,88.00
2019-03-20T15:37:10.601Z,88.80
2019-03-20T15:40:18.282Z,90.00
2019-03-20T15:43:25.842Z,90.10
2019-03-20T15:46:34.474Z,90.30
2019-03-20T15:49:41.914Z,90.80
2019-03-20T15:52:49.604Z,92.50
2019-03-20T15:55:57.534Z,91.40
2019-03-20T15:59:05.129Z,91.10
2019-03-20T16:02:12.572Z,91.00
2019-03-20T16:05:20.133Z,91.20
2019-03-20T16:08:27.883Z,92.10
2019-03-20T16:11:35.591Z,92.50
2019-03-20T16:14:45.458Z,92.40
2019-03-20T16:17:53.181Z,93.20
2019-03-20T16:21:00.748Z,94.40
2019-03-20T16:24:08.295Z,94.10
2019-03-20T16:27:15.877Z,94.90
2019-03-20T16:30:23.826Z,95.00
2019-03-20T16:33:31.363Z,95.30
2019-03-20T16:36:38.948Z,95.80
2019-03-20T16:39:46.540Z,97.00
2019-03-20T16:42:54.043Z,96.90
2019-03-20T16:46:01.768Z,97.50
2019-03-20T16:49:09.288Z,97.80
2019-03-20T16:52:16.862Z,98.80
2019-03-20T16:55:24.571Z,98.60
2019-03-20T16:58:32.268Z,99.30
2019-03-20T17:01:40.956Z,99.90
2019-03-20T17:04:48.589Z,99.90
2019-03-20T17:07:56.262Z,99.90
2019-03-20T17:11:03.792Z,99.90
2019-03-20T17:14:11.255Z,99.90
2019-03-20T17:17:18.823Z,99.90
2019-03-20T17:20:26.328Z,99.90
2019-03-20T17:23:33.902Z,99.90
2019-03-20T17:26:42.590Z,99.90
2019-03-20T17:29:50.074Z,99.90
2019-03-20T17:32:58.616Z,99.90
2019-03-20T17:36:06.288Z,99.90
2019-03-20T17:39:13.896Z,99.90
2019-03-20T17:42:21.326Z,99.90
2019-03-20T17:45:29.374Z,99.90
2019-03-20T17:48:38.105Z,99.90
2019-03-20T17:51:45.639Z,99.90
2019-03-20T17:54:53.286Z,99.90
2019-03-20T17:58:00.860Z,99.90
2019-03-20T18:01:08.367Z,99.90
2019-03-20T18:04:15.976Z,99.90
2019-03-20T18:07:23.488Z,99.90
2019-03-20T18:10:33.107Z,99.90
2019-03-20T18:13:40.342Z,99.90
2019-03-20T18:16:47.919Z,99.90
2019-03-20T18:19:56.440Z,99.90
2019-03-20T18:23:05.168Z,99.90
2019-03-20T18:26:13.955Z,99.90
2019-03-20T18:29:21.521Z,99.90
2019-03-20T18:32:29.307Z,99.90
2019-03-20T18:35:37.905Z,99.90
2019-03-20T18:38:45.850Z,99.90
2019-03-20T18:41:57.737Z,99.90
2019-03-20T18:45:02.747Z,99.90
2019-03-20T18:48:10.400Z,99.90
2019-03-20T18:51:18.016Z,99.90
2019-03-20T18:54:25.568Z,99.90
2019-03-20T18:57:33.705Z,99.90
2019-03-20T19:00:41.156Z,99.90
2019-03-20T19:03:48.758Z,99.90
2019-03-20T19:06:56.387Z,99.90
2019-03-20T19:10:03.934Z,99.90
2019-03-20T19:13:11.573Z,99.90
2019-03-20T19:16:19.413Z,99.90
2019-03-20T19:19:27.622Z,99.90
2019-03-20T19:22:35.204Z,99.90
2019-03-20T19:25:42.918Z,99.90
2019-03-20T19:28:50.394Z,99.90
2019-03-20T19:31:57.993Z,99.90
2019-03-20T19:35:06.646Z,99.90
2019-03-20T19:38:14.414Z,99.90
2019-03-20T19:41:21.938Z,99.90
2019-03-20T19:44:29.537Z,99.90
2019-03-20T19:47:37.085Z,99.90
2019-03-20T19:50:44.669Z,99.90
2019-03-20T19:53:52.522Z,99.90
2019-03-20T19:57:00.070Z,99.90
2019-03-20T20:00:11.063Z,99.90
2019-03-20T20:03:19.820Z,99.90
2019-03-20T20:06:27.385Z,99.90
2019-03-20T20:09:34.899Z,99.90
2019-03-20T20:12:42.555Z,99.90
2019-03-20T20:15:50.200Z,99.90
2019-03-20T20:18:57.753Z,99.90
2019-03-20T20:22:05.303Z,99.90
2019-03-20T20:25:12.809Z,99.90
2019-03-20T20:28:20.431Z,99.90
2019-03-20T20:31:27.970Z,99.90
2019-03-20T20:34:36.749Z,99.90
2019-03-20T20:37:44.500Z,99.90
2019-03-20T20:40:52.026Z,99.90
2019-03-20T20:43:59.624Z,99.90
2019-03-20T20:47:07.279Z,99.90
2019-03-20T20:50:14.950Z,99.90
2019-03-20T20:53:22.617Z,99.90
2019-03-20T20:56:30.163Z,99.90
2019-03-20T20:59:37.755Z,99.90
2019-03-20T21:02:45.382Z,99.90
2019-03-20T21:05:52.924Z,99.90
2019-03-20T21:09:00.389Z,99.90
2019-03-20T21:12:08.365Z,99.90
2019-03-20T21:15:37.258Z,99.90
2019-03-20T21:19:20.711Z,99.90
2019-03-20T21:23:04.768Z,99.90
2019-03-20T21:26:13.495Z,99.90
2019-03-20T21:29:56.258Z,99.90
2019-03-20T21:33:05.611Z,99.90
2019-03-20T21:37:21.429Z,99.90
2019-03-20T21:40:30.189Z,99.90
2019-03-20T21:44:30.311Z,99.90
2019-03-20T21:47:36.715Z,99.90
2019-03-20T21:51:10.872Z,99.90
2019-03-20T21:55:02.272Z,99.90
2019-03-20T21:58:16.412Z,99.90
2019-03-20T22:02:06.230Z,99.90
2019-03-20T22:05:23.283Z,99.90
2019-03-20T22:08:30.506Z,99.90
2019-03-20T22:12:17.226Z,99.90
2019-03-20T22:15:53.670Z,99.90
2019-03-20T22:19:45.064Z,99.90
2019-03-20T22:23:34.658Z,99.90
2019-03-20T22:27:17.689Z,99.90
2019-03-20T22:30:26.272Z,99.90
2019-03-20T22:34:09.575Z,99.90
2019-03-20T22:37:18.590Z,99.90
2019-03-20T22:41:01.786Z,99.90
2019-03-20T22:44:10.484Z,99.90
2019-03-20T22:47:54.106Z,99.90
2019-03-20T22:51:39.694Z,99.90
2019-03-20T22:55:26.680Z,99.90
2019-03-20T22:58:48.285Z,99.90
2019-03-20T23:02:27.181Z,99.90
2019-03-20T23:05:35.813Z,99.90
2019-03-20T23:08:44.450Z,99.90
2019-03-20T23:11:53.196Z,99.90
2019-03-20T23:15:01.836Z,99.90
2019-03-20T23:18:11.739Z,99.90
2019-03-20T23:21:20.298Z,99.90
2019-03-20T23:24:28.840Z,99.90
2019-03-20T23:27:37.646Z,99.90
2019-03-20T23:30:46.608Z,99.90
2019-03-20T23:33:55.199Z,99.90
2019-03-20T23:37:05.081Z,99.90
2019-03-20T23:40:15.109Z,99.90
2019-03-20T23:43:24.988Z,99.90
2019-03-20T23:46:33.806Z,99.90
2019-03-20T23:49:42.864Z,99.90
2019-03-20T23:52:51.452Z,99.90
2019-03-20T23:56:00.188Z,99.90
2019-03-20T23:59:09.194Z,99.90
